createdAt,value
2023-01-05T00:00:24.054Z,10
2023-01-05T00:01:31.058Z,9.1
2023-01-05T00:02:38.062Z,10.3
2023-01-05T00:03:45.214Z,9.6
2023-01-05T00:04:53.088Z,9.6
2023-01-05T00:05:59.996Z,8.8
2023-01-05T00:07:10.915Z,8.5
2023-01-05T00:08:18.275Z,8.1
2023-01-05T00:09:25.763Z,7.7
2023-01-05T00:10:32.601Z,8.4
2023-01-05T00:11:44.798Z,8.4
2023-01-05T00:12:56.898Z,6.6
2023-01-05T00:14:09.178Z,8
2023-01-05T00:15:21.393Z,8.2
2023-01-05T00:16:33.750Z,6.8
2023-01-05T00:17:46.635Z,9.4
2023-01-05T00:18:58.939Z,9.5
2023-01-05T00:20:14.326Z,8.4
2023-01-05T00:21:26.760Z,6.6
2023-01-05T00:22:39.160Z,8.2
2023-01-05T00:23:49.086Z,6.7
2023-01-05T00:24:56.082Z,6.5
2023-01-05T00:26:08.493Z,6.1
2023-01-05T00:27:15.420Z,6.8
2023-01-05T00:28:23.543Z,6.4
2023-01-05T00:29:30.630Z,6.3
2023-01-05T00:30:37.616Z,6.8
2023-01-05T00:31:44.797Z,6.9
2023-01-05T00:32:52.207Z,7.1
2023-01-05T00:33:59.646Z,5.8
2023-01-05T00:35:06.797Z,7.1
2023-01-05T00:36:13.919Z,5.7
2023-01-05T00:37:22.078Z,6.3
2023-01-05T00:38:29.456Z,7.8
2023-01-05T00:39:36.411Z,14.9
2023-01-05T00:40:44.361Z,9.9
2023-01-05T00:41:51.587Z,11
2023-01-05T00:42:58.649Z,12.2
2023-01-05T00:44:05.872Z,8.6
2023-01-05T00:45:13.008Z,10.1
2023-01-05T00:46:20.305Z,7.5
2023-01-05T00:47:27.368Z,9.2
2023-01-05T00:48:34.399Z,8
2023-01-05T00:49:41.387Z,9.1
2023-01-05T00:50:48.792Z,7.1
2023-01-05T00:51:55.735Z,6.6
2023-01-05T00:53:02.933Z,6.6
2023-01-05T00:54:10.151Z,7.3
2023-01-05T00:55:19.140Z,6.5
2023-01-05T00:56:26.376Z,7.1
2023-01-05T00:57:33.565Z,5.8
2023-01-05T00:58:40.520Z,5.7
2023-01-05T00:59:47.702Z,6.5
2023-01-05T01:00:54.914Z,5.9
2023-01-05T01:02:02.579Z,5.6
2023-01-05T01:03:09.791Z,6.2
2023-01-05T01:04:17.052Z,6.1
2023-01-05T01:05:25.587Z,5.8
2023-01-05T01:06:32.685Z,8
2023-01-05T01:07:39.513Z,6.9
2023-01-05T01:08:46.790Z,6.2
2023-01-05T01:09:53.886Z,5.9
2023-01-05T01:11:00.987Z,4.9
2023-01-05T01:12:11.684Z,6.9
2023-01-05T01:13:19.678Z,7.2
2023-01-05T01:14:26.478Z,6.5
2023-01-05T01:15:33.722Z,6.7
2023-01-05T01:16:40.755Z,6.8
2023-01-05T01:17:48.140Z,6.7
2023-01-05T01:18:55.354Z,6.6
2023-01-05T01:20:03.722Z,8.4
2023-01-05T01:21:11.382Z,8.4
2023-01-05T01:22:18.384Z,6.4
2023-01-05T01:23:25.954Z,5.9
2023-01-05T01:24:33.228Z,6.1
2023-01-05T01:25:40.055Z,6.5
2023-01-05T01:26:47.191Z,5.8
2023-01-05T01:27:54.369Z,6.2
2023-01-05T01:29:01.520Z,7.1
2023-01-05T01:30:08.852Z,5.8
2023-01-05T01:31:16.153Z,5.9
2023-01-05T01:32:23.802Z,5.4
2023-01-05T01:33:30.689Z,5.3
2023-01-05T01:34:37.783Z,5.4
2023-01-05T01:35:44.838Z,4.9
2023-01-05T01:36:53.059Z,5.2
2023-01-05T01:38:00.078Z,4.8
2023-01-05T01:39:07.560Z,5.4
2023-01-05T01:40:14.710Z,4.7
2023-01-05T01:41:22.079Z,6
2023-01-05T01:42:29.201Z,5
2023-01-05T01:43:36.546Z,4.7
2023-01-05T01:44:51.527Z,5.2
2023-01-05T01:46:01.251Z,5.4
2023-01-05T01:47:08.627Z,4.5
2023-01-05T01:48:16.111Z,4.6
2023-01-05T01:49:23.163Z,4
2023-01-05T01:50:30.311Z,3.9
2023-01-05T01:51:39.785Z,4.7
2023-01-05T01:52:47.028Z,4.3
2023-01-05T01:53:55.090Z,4.7
2023-01-05T01:55:02.340Z,4.3
2023-01-05T01:56:09.487Z,4.1
2023-01-05T01:57:16.631Z,4.2
2023-01-05T01:58:23.883Z,4.5
2023-01-05T01:59:30.958Z,5.1
2023-01-05T02:00:37.839Z,4.5
2023-01-05T02:01:45.130Z,4.4
2023-01-05T02:02:52.445Z,4.3
2023-01-05T02:03:59.683Z,4.8
2023-01-05T02:05:06.526Z,4.3
2023-01-05T02:06:13.905Z,4.4
2023-01-05T02:07:21.092Z,4.5
2023-01-05T02:08:27.890Z,4.8
2023-01-05T02:09:35.083Z,4.8
2023-01-05T02:10:42.194Z,5.1
2023-01-05T02:11:59.359Z,4.1
2023-01-05T02:13:16.778Z,3.7
2023-01-05T02:14:32.674Z,3.8
2023-01-05T02:15:42.228Z,4.3
2023-01-05T02:16:54.595Z,3.7
2023-01-05T02:18:06.626Z,3.7
2023-01-05T02:19:21.893Z,3.7
2023-01-05T02:20:39.102Z,4.2
2023-01-05T02:21:51.333Z,3.7
2023-01-05T02:23:00.981Z,4.1
2023-01-05T02:24:18.374Z,4.7
2023-01-05T02:25:33.990Z,3.9
2023-01-05T02:26:51.339Z,4.1
2023-01-05T02:28:06.859Z,3.7
2023-01-05T02:29:19.719Z,4.6
2023-01-05T02:30:37.753Z,4.6
2023-01-05T02:31:52.423Z,4.2
2023-01-05T02:33:11.014Z,4.8
2023-01-05T02:34:24.167Z,4.6
2023-01-05T02:35:36.357Z,4.5
2023-01-05T02:36:54.078Z,3.8
2023-01-05T02:38:03.895Z,3.9
2023-01-05T02:39:19.045Z,4.1
2023-01-05T02:40:34.332Z,3.9
2023-01-05T02:41:46.894Z,4.6
2023-01-05T02:42:59.143Z,4.1
2023-01-05T02:44:06.304Z,3.4
2023-01-05T02:45:13.673Z,3.8
2023-01-05T02:46:20.661Z,4.6
2023-01-05T02:47:28.877Z,3.8
2023-01-05T02:48:38.279Z,3.6
2023-01-05T02:49:46.196Z,3.7
2023-01-05T02:50:53.135Z,4
2023-01-05T02:52:00.390Z,3.5
2023-01-05T02:53:07.412Z,4.7
2023-01-05T02:54:22.664Z,3.5
2023-01-05T02:55:37.555Z,4.5
2023-01-05T02:56:44.471Z,4.3
2023-01-05T02:57:55.411Z,4.2
2023-01-05T02:59:09.611Z,4.1
2023-01-05T03:00:19.239Z,4.6
2023-01-05T03:01:32.663Z,5.1
2023-01-05T03:02:40.136Z,4.5
2023-01-05T03:03:47.399Z,3.9
2023-01-05T03:04:57.091Z,3.6
2023-01-05T03:06:04.255Z,4
2023-01-05T03:07:16.305Z,5.2
2023-01-05T03:08:29.263Z,3.9
2023-01-05T03:09:30.632Z,5
2023-01-05T03:10:40.725Z,3.7
2023-01-05T03:11:55.626Z,4
2023-01-05T03:13:15.864Z,5.1
2023-01-05T03:14:29.130Z,4.6
2023-01-05T03:15:36.422Z,3.9
2023-01-05T03:16:43.653Z,4.2
2023-01-05T03:17:50.480Z,4.1
2023-01-05T03:19:00.120Z,4.2
2023-01-05T03:20:12.497Z,4.8
2023-01-05T03:21:19.842Z,3.9
2023-01-05T03:22:28.442Z,4.6
2023-01-05T03:23:41.566Z,4
2023-01-05T03:24:53.749Z,4.9
2023-01-05T03:26:06.190Z,4.2
2023-01-05T03:27:18.627Z,4.3
2023-01-05T03:28:30.865Z,4.2
2023-01-05T03:29:45.645Z,4.5
2023-01-05T03:30:57.782Z,4.3
2023-01-05T03:32:12.513Z,4.4
2023-01-05T03:33:25.672Z,7.6
2023-01-05T03:34:41.084Z,4.4
2023-01-05T03:35:53.158Z,4.2
2023-01-05T03:37:00.274Z,4.7
2023-01-05T03:38:17.749Z,5.4
2023-01-05T03:39:19.971Z,5
2023-01-05T03:40:26.981Z,4
2023-01-05T03:41:34.138Z,4.7
2023-01-05T03:42:41.865Z,4.5
2023-01-05T03:43:48.580Z,4.9
2023-01-05T03:44:55.727Z,3.9
2023-01-05T03:46:03.292Z,4.7
2023-01-05T03:47:18.870Z,4.9
2023-01-05T03:48:25.778Z,4.2
2023-01-05T03:49:33.475Z,5.5
2023-01-05T03:50:41.005Z,4.5
2023-01-05T03:51:48.119Z,4.1
2023-01-05T03:52:55.262Z,3.8
2023-01-05T03:54:02.435Z,3.6
2023-01-05T03:55:09.521Z,5.7
2023-01-05T03:56:16.738Z,4.1
2023-01-05T03:57:23.962Z,3.4
2023-01-05T03:58:31.096Z,4.7
2023-01-05T03:59:38.189Z,4.1
2023-01-05T04:00:46.172Z,4.2
2023-01-05T04:01:53.934Z,3.7
2023-01-05T04:03:01.093Z,4.5
2023-01-05T04:04:08.219Z,4.2
2023-01-05T04:05:15.418Z,3.9
2023-01-05T04:06:22.787Z,4.9
2023-01-05T04:07:29.588Z,4.4
2023-01-05T04:08:36.826Z,5.6
2023-01-05T04:09:43.938Z,4.1
2023-01-05T04:10:51.047Z,5.5
2023-01-05T04:11:58.635Z,4.8
2023-01-05T04:13:06.882Z,4.5
2023-01-05T04:14:14.266Z,4.4
2023-01-05T04:15:21.437Z,3.7
2023-01-05T04:16:28.836Z,4
2023-01-05T04:17:37.043Z,5.2
2023-01-05T04:18:44.215Z,3.9
2023-01-05T04:19:51.465Z,4.3
2023-01-05T04:20:58.651Z,4.7
2023-01-05T04:22:05.705Z,6
2023-01-05T04:23:12.843Z,5.6
2023-01-05T04:24:19.979Z,6
2023-01-05T04:25:27.305Z,5.4
2023-01-05T04:26:34.437Z,5.9
2023-01-05T04:27:42.179Z,5.7
2023-01-05T04:28:49.390Z,6.5
2023-01-05T04:29:56.539Z,5.5
2023-01-05T04:31:03.769Z,5.6
2023-01-05T04:32:10.903Z,6.2
2023-01-05T04:33:18.026Z,4.9
2023-01-05T04:34:26.921Z,4.8
2023-01-05T04:35:33.837Z,5.1
2023-01-05T04:36:40.811Z,4.7
2023-01-05T04:37:48.045Z,4.7
2023-01-05T04:38:55.093Z,4.6
2023-01-05T04:40:02.678Z,4
2023-01-05T04:41:10.359Z,6
2023-01-05T04:42:17.060Z,6.1
2023-01-05T04:43:25.122Z,5.1
2023-01-05T04:44:32.542Z,5.3
2023-01-05T04:45:39.352Z,6.2
2023-01-05T04:46:46.586Z,4.6
2023-01-05T04:47:54.749Z,4.8
2023-01-05T04:49:02.001Z,4.1
2023-01-05T04:50:09.349Z,5.4
2023-01-05T04:51:17.332Z,5.5
2023-01-05T04:52:24.415Z,4.5
2023-01-05T04:53:31.458Z,5.1
2023-01-05T04:54:38.627Z,4.8
2023-01-05T04:55:45.862Z,5.4
2023-01-05T04:56:52.754Z,4.7
2023-01-05T04:57:59.866Z,4.4
2023-01-05T04:59:07.031Z,4.8
2023-01-05T05:00:14.332Z,4.4
2023-01-05T05:01:21.481Z,5.6
2023-01-05T05:02:28.778Z,4.7
2023-01-05T05:03:36.494Z,5.1
2023-01-05T05:04:43.664Z,4.6
2023-01-05T05:05:51.028Z,5.6
2023-01-05T05:06:58.010Z,5.2
2023-01-05T05:08:05.275Z,4.8
2023-01-05T05:09:12.121Z,5.7
2023-01-05T05:10:19.534Z,5.4
2023-01-05T05:11:26.457Z,5.2
2023-01-05T05:12:33.709Z,5.1
2023-01-05T05:13:40.655Z,5.2
2023-01-05T05:14:47.823Z,5.2
2023-01-05T05:15:55.027Z,5.4
2023-01-05T05:17:02.126Z,5.6
2023-01-05T05:18:09.843Z,5.8
2023-01-05T05:19:16.343Z,5.2
2023-01-05T05:20:23.618Z,5.1
2023-01-05T05:21:31.682Z,5.1
2023-01-05T05:22:39.059Z,4.1
2023-01-05T05:23:45.871Z,5.3
2023-01-05T05:24:52.950Z,5.2
2023-01-05T05:26:01.029Z,6.5
2023-01-05T05:27:08.344Z,6
2023-01-05T05:28:15.536Z,5.5
2023-01-05T05:29:22.974Z,5.8
2023-01-05T05:30:29.790Z,6.1
2023-01-05T05:31:37.075Z,6.4
2023-01-05T05:32:44.491Z,6.2
2023-01-05T05:33:52.157Z,5.9
2023-01-05T05:34:59.936Z,5.7
2023-01-05T05:36:06.912Z,5.8
2023-01-05T05:37:14.082Z,7.4
2023-01-05T05:38:21.320Z,7.2
2023-01-05T05:39:28.464Z,6.4
2023-01-05T05:40:35.546Z,6.9
2023-01-05T05:41:42.620Z,6.7
2023-01-05T05:42:50.842Z,7.9
2023-01-05T05:43:58.651Z,6.8
2023-01-05T05:45:05.708Z,7.4
2023-01-05T05:46:13.335Z,6.6
2023-01-05T05:47:20.375Z,7.3
2023-01-05T05:48:27.642Z,7.4
2023-01-05T05:49:34.669Z,7.6
2023-01-05T05:50:41.596Z,8.6
2023-01-05T05:51:48.786Z,7.9
2023-01-05T05:52:56.000Z,7.8
2023-01-05T05:54:03.910Z,8.3
2023-01-05T05:55:11.721Z,9.7
2023-01-05T05:56:19.023Z,7.5
2023-01-05T05:57:26.011Z,8
2023-01-05T05:58:33.323Z,9.1
2023-01-05T05:59:40.283Z,7.5
2023-01-05T06:00:47.499Z,7.8
2023-01-05T06:01:55.766Z,8.1
2023-01-05T06:03:02.830Z,7.3
2023-01-05T06:04:10.830Z,10
2023-01-05T06:05:19.791Z,10.3
2023-01-05T06:06:26.781Z,9.1
2023-01-05T06:07:34.638Z,10.3
2023-01-05T06:08:41.890Z,10.6
2023-01-05T06:09:49.214Z,12.4
2023-01-05T06:10:57.158Z,10.3
2023-01-05T06:12:04.619Z,8.1
2023-01-05T06:13:14.167Z,7.6
2023-01-05T06:14:21.564Z,7.9
2023-01-05T06:15:28.915Z,9.6
2023-01-05T06:16:36.140Z,10.1
2023-01-05T06:17:44.751Z,10.2
2023-01-05T06:18:51.864Z,11.4
2023-01-05T06:19:58.855Z,9.3
2023-01-05T06:21:06.396Z,9.5
2023-01-05T06:22:13.170Z,10.3
2023-01-05T06:23:20.343Z,11
2023-01-05T06:24:27.440Z,9.7
2023-01-05T06:25:35.206Z,10.5
2023-01-05T06:26:42.260Z,9.4
2023-01-05T06:27:49.236Z,10.2
2023-01-05T06:28:57.269Z,9.1
2023-01-05T06:30:04.651Z,10.2
2023-01-05T06:31:11.680Z,11.3
2023-01-05T06:32:18.905Z,11.3
2023-01-05T06:33:26.174Z,11
2023-01-05T06:34:33.118Z,8.6
2023-01-05T06:35:40.340Z,9.3
2023-01-05T06:36:47.148Z,10.3
2023-01-05T06:37:55.025Z,7.7
2023-01-05T06:39:02.199Z,8.7
2023-01-05T06:40:09.206Z,8
2023-01-05T06:41:16.581Z,8.1
2023-01-05T06:42:23.918Z,9
2023-01-05T06:43:30.664Z,11.4
2023-01-05T06:44:37.865Z,8
2023-01-05T06:45:45.077Z,8.7
2023-01-05T06:46:51.927Z,8.6
2023-01-05T06:47:59.040Z,10.3
2023-01-05T06:49:07.102Z,9.3
2023-01-05T06:50:14.345Z,8.5
2023-01-05T06:51:21.600Z,9
2023-01-05T06:52:28.871Z,8.7
2023-01-05T06:53:35.962Z,8.5
2023-01-05T06:54:42.864Z,9.7
2023-01-05T06:55:50.068Z,10.9
2023-01-05T06:56:57.923Z,9.6
2023-01-05T06:58:05.110Z,11.5
2023-01-05T06:59:12.340Z,10.7
2023-01-05T07:00:19.160Z,11.6
2023-01-05T07:01:26.544Z,11.6
2023-01-05T07:02:35.625Z,10.7
2023-01-05T07:03:43.296Z,12.2
2023-01-05T07:04:50.351Z,9.9
2023-01-05T07:05:59.147Z,8.9
2023-01-05T07:07:06.282Z,9.7
2023-01-05T07:08:16.523Z,10.4
2023-01-05T07:09:23.682Z,11
2023-01-05T07:10:31.234Z,9.8
2023-01-05T07:11:38.050Z,11
2023-01-05T07:12:45.945Z,10.3
2023-01-05T07:13:52.731Z,12.8
2023-01-05T07:15:00.175Z,15.2
2023-01-05T07:16:07.569Z,12.6
2023-01-05T07:17:14.649Z,11.2
2023-01-05T07:18:21.872Z,10.1
2023-01-05T07:19:28.956Z,9.8
2023-01-05T07:20:36.142Z,8.6
2023-01-05T07:21:43.097Z,8.6
2023-01-05T07:22:50.529Z,8.9
2023-01-05T07:23:57.902Z,11
2023-01-05T07:25:05.057Z,7.1
2023-01-05T07:26:13.192Z,9.2
2023-01-05T07:27:20.492Z,4.8
2023-01-05T07:28:27.626Z,3.7
2023-01-05T07:29:35.669Z,4.6
2023-01-05T07:30:42.820Z,5.4
2023-01-05T07:31:55.200Z,4.3
2023-01-05T07:33:02.251Z,4
2023-01-05T07:34:09.338Z,4.7
2023-01-05T07:35:16.443Z,5.3
2023-01-05T07:36:23.125Z,3.8
2023-01-05T07:37:30.362Z,3.2
2023-01-05T07:38:37.763Z,3.5
2023-01-05T07:39:44.953Z,3.2
2023-01-05T07:40:52.111Z,2.5
2023-01-05T07:41:59.310Z,3.4
2023-01-05T07:43:06.633Z,4.8
2023-01-05T07:44:13.666Z,3.8
2023-01-05T07:45:20.871Z,3.5
2023-01-05T07:46:28.453Z,3.9
2023-01-05T07:47:35.634Z,4.9
2023-01-05T07:48:42.622Z,4.9
2023-01-05T07:49:50.340Z,4
2023-01-05T07:50:57.620Z,4
2023-01-05T07:52:05.459Z,4
2023-01-05T07:53:12.353Z,3.8
2023-01-05T07:54:19.713Z,3.7
2023-01-05T07:55:26.650Z,4.2
2023-01-05T07:56:33.830Z,5
2023-01-05T07:57:41.228Z,4.8
2023-01-05T07:58:48.623Z,4.1
2023-01-05T07:59:55.645Z,4.1
2023-01-05T08:01:02.996Z,4
2023-01-05T08:02:10.330Z,3.6
2023-01-05T08:03:17.117Z,5.2
2023-01-05T08:04:24.461Z,4.4
2023-01-05T08:05:31.766Z,5.3
2023-01-05T08:06:38.676Z,4.8
2023-01-05T08:07:45.608Z,4.4
2023-01-05T08:08:53.554Z,4.5
2023-01-05T08:10:00.781Z,4.3
2023-01-05T08:11:13.181Z,4.2
2023-01-05T08:12:20.291Z,5.2
2023-01-05T08:13:27.177Z,5.3
2023-01-05T08:14:39.306Z,4.9
2023-01-05T08:15:50.989Z,4.9
2023-01-05T08:16:53.608Z,5.2
2023-01-05T08:18:00.565Z,4.1
2023-01-05T08:19:10.972Z,5.1
2023-01-05T08:20:14.888Z,6.4
2023-01-05T08:21:22.029Z,8.5
2023-01-05T08:22:29.362Z,7.1
2023-01-05T08:23:36.412Z,6.2
2023-01-05T08:24:43.309Z,6.4
2023-01-05T08:25:51.313Z,5.9
2023-01-05T08:26:58.234Z,6.6
2023-01-05T08:28:05.490Z,6.4
2023-01-05T08:29:12.573Z,7.3
2023-01-05T08:30:19.650Z,7.2
2023-01-05T08:31:26.858Z,6.5
2023-01-05T08:32:33.984Z,6.8
2023-01-05T08:33:41.318Z,7.9
2023-01-05T08:34:53.618Z,10
2023-01-05T08:35:55.316Z,10.6
2023-01-05T08:37:02.927Z,12.1
2023-01-05T08:38:10.102Z,8.4
2023-01-05T08:39:17.374Z,26
2023-01-05T08:40:24.463Z,13.2
2023-01-05T08:41:31.840Z,52.5
2023-01-05T08:42:40.031Z,29.1
2023-01-05T08:43:47.225Z,102
2023-01-05T08:44:54.348Z,45.4
2023-01-05T08:46:01.648Z,313.6
2023-01-05T08:47:09.246Z,139.9
2023-01-05T08:48:17.381Z,129.6
2023-01-05T08:49:24.625Z,183.3
2023-01-05T08:50:32.005Z,205.9
2023-01-05T08:51:38.921Z,51.1
2023-01-05T08:52:45.862Z,69.3
2023-01-05T08:53:53.080Z,39.4
2023-01-05T08:55:00.213Z,38.3
2023-01-05T08:56:07.388Z,13.1
2023-01-05T08:57:14.705Z,15.3
2023-01-05T08:58:21.746Z,33.7
2023-01-05T08:59:28.881Z,13.4
2023-01-05T09:00:36.089Z,17.5
2023-01-05T09:01:43.118Z,16.8
2023-01-05T09:02:50.311Z,12.2
2023-01-05T09:03:57.655Z,5.7
2023-01-05T09:05:04.572Z,8.3
2023-01-05T09:06:11.717Z,10
2023-01-05T09:07:18.881Z,17.8
2023-01-05T09:08:25.978Z,13.6
2023-01-05T09:09:33.464Z,8.9
2023-01-05T09:10:40.529Z,5.5
2023-01-05T09:11:47.340Z,7.1
2023-01-05T09:12:54.606Z,6.7
2023-01-05T09:14:01.737Z,6.9
2023-01-05T09:15:08.875Z,5.8
2023-01-05T09:16:21.392Z,6.9
2023-01-05T09:17:23.348Z,6.7
2023-01-05T09:18:30.373Z,6.3
2023-01-05T09:19:37.578Z,7
2023-01-05T09:20:44.583Z,7.7
2023-01-05T09:21:51.706Z,7.5
2023-01-05T09:22:58.929Z,6.7
2023-01-05T09:24:06.581Z,7.8
2023-01-05T09:25:13.685Z,7.8
2023-01-05T09:26:20.847Z,7.7
2023-01-05T09:27:27.563Z,7.1
2023-01-05T09:28:34.695Z,7.3
2023-01-05T09:29:41.913Z,8.1
2023-01-05T09:30:50.898Z,8.6
2023-01-05T09:31:55.942Z,8.2
2023-01-05T09:33:04.246Z,9.1
2023-01-05T09:34:11.371Z,7.7
2023-01-05T09:35:18.612Z,5.2
2023-01-05T09:36:25.803Z,5.7
2023-01-05T09:37:32.976Z,5.5
2023-01-05T09:38:45.011Z,4.9
2023-01-05T09:39:46.907Z,4.9
2023-01-05T09:40:54.134Z,5.5
2023-01-05T09:42:01.251Z,4.6
2023-01-05T09:43:08.403Z,5.2
2023-01-05T09:44:18.194Z,5.8
2023-01-05T09:45:30.448Z,4.4
2023-01-05T09:46:37.610Z,6
2023-01-05T09:47:44.506Z,5.4
2023-01-05T09:48:51.627Z,5.3
2023-01-05T09:49:58.819Z,7.1
2023-01-05T09:51:06.077Z,10
2023-01-05T09:52:13.140Z,8.2
2023-01-05T09:53:22.447Z,7.5
2023-01-05T09:54:29.740Z,8.4
2023-01-05T09:55:36.671Z,7.8
2023-01-05T09:57:08.867Z,7.7
2023-01-05T09:57:50.813Z,6.5
2023-01-05T09:58:57.933Z,8.6
2023-01-05T10:00:10.188Z,7.5
2023-01-05T10:01:17.594Z,8.5
2023-01-05T10:02:24.680Z,7.2
2023-01-05T10:04:05.740Z,9.5
2023-01-05T10:04:54.279Z,9.9
2023-01-05T10:06:01.162Z,9.7
2023-01-05T10:07:08.524Z,9.7
2023-01-05T10:08:20.720Z,12.1
2023-01-05T10:09:27.748Z,10.3
2023-01-05T10:10:34.960Z,11.5
2023-01-05T10:11:52.671Z,12
2023-01-05T10:13:13.094Z,11.4
2023-01-05T10:14:22.792Z,11
2023-01-05T10:15:35.154Z,10.7
2023-01-05T10:16:45.081Z,19.5
2023-01-05T10:17:52.295Z,16.6
2023-01-05T10:18:59.433Z,12
2023-01-05T10:20:06.566Z,12
2023-01-05T10:21:18.869Z,14.2
2023-01-05T10:22:35.087Z,13.6
2023-01-05T10:23:43.714Z,14.7
2023-01-05T10:24:58.992Z,14.4
2023-01-05T10:26:06.145Z,11.6
2023-01-05T10:27:24.977Z,14.8
2023-01-05T10:28:28.257Z,19.7
2023-01-05T10:29:45.880Z,15.4
2023-01-05T10:30:53.060Z,14.8
2023-01-05T10:32:07.207Z,12.2
2023-01-05T10:33:39.332Z,14.4
2023-01-05T10:34:24.283Z,15.1
2023-01-05T10:35:59.958Z,13.5
2023-01-05T10:37:10.118Z,12.1
2023-01-05T10:38:04.485Z,14.2
2023-01-05T10:39:21.750Z,11.6
2023-01-05T10:40:36.650Z,13.1
2023-01-05T10:41:48.646Z,16.1
2023-01-05T10:43:01.311Z,15.8
2023-01-05T10:44:16.738Z,16.9
2023-01-05T10:45:31.573Z,15.5
2023-01-05T10:46:42.763Z,12.4
2023-01-05T10:47:45.688Z,13.5
2023-01-05T10:48:52.837Z,12.4
2023-01-05T10:50:00.126Z,14.9
2023-01-05T10:51:07.210Z,19.3
2023-01-05T10:52:14.317Z,19.9
2023-01-05T10:53:21.680Z,15.3
2023-01-05T10:54:28.731Z,10.1
2023-01-05T10:55:46.421Z,13.7
2023-01-05T10:56:56.202Z,8.9
2023-01-05T10:58:13.434Z,10.3
2023-01-05T10:59:23.237Z,10.1
2023-01-05T11:00:30.351Z,7.8
2023-01-05T11:01:42.682Z,8
2023-01-05T11:02:49.643Z,6.4
2023-01-05T11:05:09.020Z,8
2023-01-05T11:06:21.242Z,7
2023-01-05T11:07:28.442Z,8.1
2023-01-05T11:08:35.730Z,7.9
2023-01-05T11:09:43.575Z,6.7
2023-01-05T11:10:51.190Z,6.6
2023-01-05T11:12:01.269Z,6.8
2023-01-05T11:13:08.286Z,6.7
2023-01-05T11:14:25.536Z,7.3
2023-01-05T11:15:32.783Z,8.1
2023-01-05T11:16:40.907Z,6.4
2023-01-05T11:17:52.901Z,6.9
2023-01-05T11:19:00.065Z,6.1
2023-01-05T11:20:09.308Z,5.4
2023-01-05T11:21:18.948Z,5.4
2023-01-05T11:22:26.163Z,6.5
2023-01-05T11:23:33.539Z,6.5
2023-01-05T11:24:40.549Z,6.1
2023-01-05T11:25:47.382Z,5.5
2023-01-05T11:26:54.538Z,6.3
2023-01-05T11:28:05.372Z,5.3
2023-01-05T11:29:19.946Z,4.8
2023-01-05T11:30:26.750Z,4.9
2023-01-05T11:31:34.882Z,5.5
2023-01-05T11:32:53.152Z,6.5
2023-01-05T11:34:00.358Z,6.3
2023-01-05T11:35:07.987Z,5
2023-01-05T11:36:23.230Z,4.4
2023-01-05T11:37:29.905Z,5.3
2023-01-05T11:38:37.140Z,5.7
2023-01-05T11:39:44.400Z,5.9
2023-01-05T11:40:56.921Z,6.8
2023-01-05T11:42:04.214Z,6.4
2023-01-05T11:43:22.162Z,4.6
2023-01-05T11:44:29.002Z,6.1
2023-01-05T11:45:36.192Z,5.8
2023-01-05T11:46:44.229Z,5.2
2023-01-05T11:47:51.253Z,4.2
2023-01-05T11:48:58.388Z,4.4
2023-01-05T11:50:09.346Z,5.4
2023-01-05T11:51:12.788Z,4.7
2023-01-05T11:52:30.539Z,5.8
2023-01-05T11:53:40.484Z,5.7
2023-01-05T11:54:47.389Z,5.3
2023-01-05T11:55:54.487Z,6.3
2023-01-05T11:57:01.615Z,5.8
2023-01-05T11:58:16.834Z,7
2023-01-05T11:59:27.091Z,4.6
2023-01-05T12:00:34.407Z,5
2023-01-05T12:01:47.085Z,5.6
2023-01-05T12:03:01.768Z,6.4
2023-01-05T12:04:17.125Z,4.6
2023-01-05T12:05:26.733Z,7.2
2023-01-05T12:06:39.155Z,6.2
2023-01-05T12:07:52.111Z,8.6
2023-01-05T12:09:01.858Z,5.5
2023-01-05T12:10:09.172Z,4.8
2023-01-05T12:11:16.408Z,4.3
2023-01-05T12:12:23.379Z,5
2023-01-05T12:13:33.566Z,5.8
2023-01-05T12:14:50.694Z,6.1
2023-01-05T12:16:03.317Z,5.6
2023-01-05T12:17:13.259Z,5.7
2023-01-05T12:18:21.240Z,9.6
2023-01-05T12:19:36.230Z,6.4
2023-01-05T12:20:54.190Z,7
2023-01-05T12:22:08.759Z,8.3
2023-01-05T12:23:15.890Z,11.7
2023-01-05T12:24:34.165Z,25.6
2023-01-05T12:25:44.095Z,8.9
2023-01-05T12:26:59.100Z,10.1
2023-01-05T12:28:11.442Z,13.9
2023-01-05T12:33:35.688Z,5
2023-01-05T12:34:21.138Z,11.4
2023-01-05T12:35:33.678Z,8.7
2023-01-05T12:36:43.632Z,10.2
2023-01-05T12:37:58.319Z,10.1
2023-01-05T12:39:10.526Z,12.7
2023-01-05T12:40:28.330Z,7.2
2023-01-05T12:41:43.892Z,6.9
2023-01-05T12:43:01.090Z,16.3
2023-01-05T12:44:11.263Z,10.8
2023-01-05T12:45:31.402Z,20.3
2023-01-05T12:46:35.832Z,11.1
2023-01-05T12:47:51.107Z,12
2023-01-05T12:49:03.242Z,14.1
2023-01-05T12:50:15.363Z,12.3
2023-01-05T12:51:27.920Z,14.1
2023-01-05T12:52:37.451Z,10.2
2023-01-05T12:53:44.596Z,11.3
2023-01-05T12:54:59.713Z,17.8
2023-01-05T12:56:14.631Z,9.6
2023-01-05T12:57:25.808Z,11.3
2023-01-05T12:58:32.466Z,10.5
2023-01-05T12:59:42.183Z,11.3
2023-01-05T13:00:59.434Z,15
2023-01-05T13:02:06.641Z,10.4
2023-01-05T13:03:18.748Z,9.9
2023-01-05T13:04:30.085Z,9.7
2023-01-05T13:05:41.757Z,10.3
2023-01-05T13:06:54.042Z,13.2
2023-01-05T13:08:01.063Z,10.1
2023-01-05T13:09:19.284Z,7.5
2023-01-05T13:10:26.163Z,8.8
2023-01-05T13:11:42.386Z,9.5
2023-01-05T13:12:52.524Z,10.3
2023-01-05T13:13:59.714Z,13.4
2023-01-05T13:15:11.916Z,7.7
2023-01-05T13:16:21.761Z,7.6
2023-01-05T13:17:28.797Z,6.9
2023-01-05T13:18:36.222Z,6.3
2023-01-05T13:19:43.122Z,7.3
2023-01-05T13:20:50.210Z,6.8
2023-01-05T13:22:00.479Z,10.5
2023-01-05T13:23:07.836Z,8.7
2023-01-05T13:24:14.615Z,7.4
2023-01-05T13:25:22.910Z,7.7
2023-01-05T13:26:35.919Z,8.1
2023-01-05T13:27:37.657Z,7.5
2023-01-05T13:28:44.850Z,8.9
2023-01-05T13:29:51.890Z,11.3
2023-01-05T13:30:58.933Z,8.8
2023-01-05T13:32:16.240Z,8.1
2023-01-05T13:33:29.002Z,8
2023-01-05T13:34:45.874Z,9
2023-01-05T13:36:03.549Z,9
2023-01-05T13:37:18.654Z,13
2023-01-05T13:38:30.651Z,8
2023-01-05T13:39:43.672Z,9.9
2023-01-05T13:40:58.334Z,9.2
2023-01-05T13:42:08.063Z,8.7
2023-01-05T13:43:20.778Z,11.4
2023-01-05T13:44:36.536Z,11.1
2023-01-05T13:45:46.127Z,13.3
2023-01-05T13:47:01.350Z,15.4
2023-01-05T13:48:13.576Z,11
2023-01-05T13:49:28.425Z,10.7
2023-01-05T13:50:45.790Z,13.3
2023-01-05T13:52:02.900Z,8.3
2023-01-05T13:53:13.134Z,8.7
2023-01-05T13:54:23.431Z,6.2
2023-01-05T13:55:40.780Z,7.4
2023-01-05T13:56:47.911Z,7.7
2023-01-05T13:57:55.114Z,29.3
2023-01-05T13:59:02.354Z,57.7
2023-01-05T14:00:17.511Z,82.1
2023-01-05T14:01:30.502Z,13.7
2023-01-05T14:02:40.412Z,9.2
2023-01-05T14:03:50.441Z,13.6
2023-01-05T14:04:54.507Z,22.9
2023-01-05T14:06:01.815Z,10.8
2023-01-05T14:07:08.795Z,15.7
2023-01-05T14:08:15.989Z,64.5
2023-01-05T14:09:29.728Z,58.5
2023-01-05T14:10:42.039Z,42.3
2023-01-05T14:11:49.189Z,11.4
2023-01-05T14:13:06.351Z,29.6
2023-01-05T14:14:13.806Z,19.8
2023-01-05T14:15:28.940Z,11.8
2023-01-05T14:16:39.469Z,11.1
2023-01-05T14:17:47.017Z,14.2
2023-01-05T14:18:56.789Z,9.9
2023-01-05T14:20:14.049Z,10.1
2023-01-05T14:21:31.485Z,11.3
2023-01-05T14:22:46.935Z,12.1
2023-01-05T14:23:53.788Z,7.3
2023-01-05T14:25:00.871Z,11.9
2023-01-05T14:26:21.200Z,7.8
2023-01-05T14:27:38.620Z,9.2
2023-01-05T14:28:45.946Z,6.8
2023-01-05T14:29:53.361Z,7.9
2023-01-05T14:31:00.567Z,7.9
2023-01-05T14:32:12.698Z,10.3
2023-01-05T14:33:25.074Z,8.7
2023-01-05T14:34:32.101Z,10.4
2023-01-05T14:35:39.281Z,9.8
2023-01-05T14:36:46.467Z,6.2
2023-01-05T14:38:01.243Z,6.5
2023-01-05T14:39:08.471Z,6.7
2023-01-05T14:40:15.402Z,9
2023-01-05T14:41:27.688Z,10.2
2023-01-05T14:42:34.874Z,5.6
2023-01-05T14:43:42.282Z,6
2023-01-05T14:44:49.245Z,7.1
2023-01-05T14:46:01.791Z,8.7
2023-01-05T14:47:11.666Z,5.8
2023-01-05T14:48:18.676Z,6
2023-01-05T14:49:30.954Z,7.4
2023-01-05T14:50:38.227Z,6.2
2023-01-05T14:51:46.295Z,6.7
2023-01-05T14:52:55.843Z,7.6
2023-01-05T14:54:08.096Z,6.8
2023-01-05T14:55:37.026Z,8.7
2023-01-05T14:56:27.484Z,8.4
2023-01-05T14:57:34.623Z,7.2
2023-01-05T14:58:41.907Z,8.4
2023-01-05T14:59:48.975Z,8.6
2023-01-05T15:01:04.212Z,8.3
2023-01-05T15:02:19.133Z,7.6
2023-01-05T15:03:26.321Z,8.7
2023-01-05T15:04:36.257Z,8.1
2023-01-05T15:05:43.555Z,8.7
2023-01-05T15:06:50.543Z,8.7
2023-01-05T15:08:07.808Z,10
2023-01-05T15:09:25.753Z,8.1
2023-01-05T15:10:43.577Z,8.1
2023-01-05T15:11:59.063Z,6.5
2023-01-05T15:13:14.134Z,10
2023-01-05T15:14:28.847Z,8.3
2023-01-05T15:15:42.100Z,7.5
2023-01-05T15:16:56.800Z,9
2023-01-05T15:18:12.633Z,8.3
2023-01-05T15:19:24.863Z,7.6
2023-01-05T15:20:42.307Z,8.9
2023-01-05T15:22:03.392Z,6.6
2023-01-05T15:23:13.056Z,8.8
2023-01-05T15:24:30.573Z,6.7
2023-01-05T15:25:53.081Z,5.8
2023-01-05T15:27:06.514Z,6.5
2023-01-05T15:28:24.105Z,6.3
2023-01-05T15:29:36.192Z,5
2023-01-05T15:30:51.336Z,5.6
2023-01-05T15:32:06.155Z,6
2023-01-05T15:33:19.723Z,5
2023-01-05T15:34:31.733Z,6.7
2023-01-05T15:35:38.848Z,5.2
2023-01-05T15:36:56.059Z,13.9
2023-01-05T15:38:08.454Z,12.8
2023-01-05T15:39:15.470Z,31.2
2023-01-05T15:40:33.079Z,40
2023-01-05T15:41:39.857Z,26.5
2023-01-05T15:42:47.162Z,33.4
2023-01-05T15:43:54.063Z,10.5
2023-01-05T15:45:01.218Z,10.3
2023-01-05T15:46:14.889Z,45.3
2023-01-05T15:47:25.656Z,8
2023-01-05T15:48:32.979Z,14.8
2023-01-05T15:49:40.022Z,9.4
2023-01-05T15:50:47.218Z,6.5
2023-01-05T15:51:54.107Z,6.6
2023-01-05T15:53:01.294Z,4.8
2023-01-05T15:54:08.514Z,5.5
2023-01-05T15:55:15.639Z,8.7